Huntley, Minnesota
Current Conditions -  °F | °C
As of 11:15 PM on Friday 28 Nov 2014 (Local Time) from KFRM Reporting Station
Clear Clear  
Wind Chill:   Ceiling: Unl
Heat Index: 18°   Visibility: 5mi
Dew Point: 14°   Wind: 6mph
Humidity: 86%   Direction: 140°SE
Pressure: 29.62"   Gusts: NA
Location:  43.73°N, 94.24°W
Report Text: KFRM 290515Z AUTO 14005KT 5SM CLR M08/M10 A2962 RMK AO1
Loading
Personal Weather Stations






























Interactive Weather Map New forecast layout! Learn more

10-Day Weather Forecast

Advertisements
Track Severe Weather on mobile